UACC/TSE METAR and TAF weather

Enter ICAO airport designator
Station Type Date Time Source
UACC METAR 2020/01/24 21:00 UTC NOAA

UACC 242100Z 26008MPS 5000 -SN SCT007 OVC030 M03/M04 Q1002 R22/452040 NOSIG RMK QFE721/0961


Station Type Date Time Source
UACC Decoded METAR 2020/01/24 21:00 UTC NOAA

Astana, Kazakhstan (UACC) 51-12N 071-27E
Jan 24, 2020 - 04:00 PM EST / 2020.01.24 2100 UTC
Wind: from the W (260 degrees) at 18 MPH (16 KT):0
Visibility: 3 mile(s):0
Sky conditions: overcast
Weather: light snow
Temperature: 26 F (-3 C)
Windchill: 12 F (-11 C):1
Dew Point: 24 F (-4 C)
Relative Humidity: 92%
Pressure (altimeter): 29.59 in. Hg (1002 hPa)
ob: UACC 242100Z 26008MPS 5000 -SN SCT007 OVC030 M03/M04 Q1002 R22/452040 NOSIG RMK QFE721/0961
cycle: 21

Station Type Date Time Source
UACC TAF 2020/01/24 18:21 UTC NOAA

TAF UACC 241700Z 2418/2518 23009MPS 2000 SN DRSN BKN011 OVC030 TXM03/2420Z TNM09/2518Z
TEMPO 2418/2422 1000 SHSN DRSN BKN005 BKN011CB
FM242200 24009MPS 5000 -SN DRSN BKN007 OVC020
TEMPO 2422/2504 25010MPS 2000 SHSN BLSN BKN002 BKN011CB
TEMPO 2504/2518 23010G15MPS 3100 BLSN

Example: see airport list